Time;durP1;ratioP1;P1;durP2;ratioP2;P2;SDS_P1;SDS_P2;PMS_P1;PMS_P2;Temp;Humidity;BMP_temperature;BMP_pressure;BME280_temperature;BME280_humidity;BME280_pressure;Samples;Min_cycle;Max_cycle;Signal;HPM_P1;HPM_P2
2022/03/14 00:00:12;;;;;;;18.10;10.40;;;;;;;0.24;63.35;102834.58;107600;1246;69024;-72
2022/03/14 00:03:02;;;;;;;20.20;11.10;;;;;;;0.25;63.60;102825.50;107557;1246;73578;-71
2022/03/14 00:05:31;;;;;;;21.40;10.40;;;;;;;0.29;63.95;102821.59;107757;1247;59034;-71
2022/03/14 00:08:01;;;;;;;19.20;10.90;;;;;;;0.31;64.27;102825.87;107761;1247;61738;-71
2022/03/14 00:10:30;;;;;;;18.10;10.90;;;;;;;0.32;64.71;102826.04;107697;1247;74061;-72
2022/03/14 00:13:00;;;;;;;17.30;9.90;;;;;;;0.38;63.62;102833.94;107579;1246;72958;-69
2022/03/14 00:15:32;;;;;;;14.90;8.40;;;;;;;0.38;63.00;102834.63;107607;1246;69345;-70
2022/03/14 00:18:03;;;;;;;21.70;10.10;;;;;;;0.35;62.86;102835.48;107605;1247;72371;-71
2022/03/14 00:20:33;;;;;;;18.40;9.90;;;;;;;0.30;63.16;102838.38;107566;1246;60449;-70
2022/03/14 00:23:02;;;;;;;18.90;9.80;;;;;;;0.27;63.41;102836.64;107506;1248;61693;-71
2022/03/14 00:25:31;;;;;;;17.80;10.00;;;;;;;0.24;64.27;102836.30;107684;1246;72872;-71
2022/03/14 00:28:00;;;;;;;18.10;10.50;;;;;;;0.25;63.44;102834.23;107428;1247;72262;-71
2022/03/14 00:30:30;;;;;;;18.10;9.90;;;;;;;0.22;64.18;102835.60;107549;1248;68631;-70
2022/03/14 00:32:59;;;;;;;20.50;10.50;;;;;;;0.23;64.24;102833.03;107647;1247;74456;-70
2022/03/14 00:35:29;;;;;;;18.10;10.30;;;;;;;0.24;64.35;102832.19;107448;1248;59710;-70
2022/03/14 00:37:59;;;;;;;20.40;10.50;;;;;;;0.28;64.30;102831.34;107527;1248;59549;-71
2022/03/14 00:40:28;;;;;;;20.50;10.10;;;;;;;0.29;63.96;102831.69;107756;1246;72789;-70
2022/03/14 00:42:57;;;;;;;19.10;10.50;;;;;;;0.29;63.56;102836.50;107693;1247;70366;-71
2022/03/14 00:45:26;;;;;;;16.30;10.90;;;;;;;0.28;63.37;102844.20;107755;1247;67700;-72
2022/03/14 00:47:55;;;;;;;19.90;10.60;;;;;;;0.26;63.54;102847.95;107676;1244;72353;-72
2022/03/14 00:50:25;;;;;;;22.30;10.30;;;;;;;0.23;63.09;102851.38;107673;1247;59572;-65
2022/03/14 00:52:54;;;;;;;15.00;8.80;;;;;;;0.18;63.48;102854.60;107556;1247;60097;-69
2022/03/14 00:55:23;;;;;;;19.50;10.00;;;;;;;0.14;62.95;102856.46;107478;1247;74285;-68
2022/03/14 00:57:52;;;;;;;17.80;10.40;;;;;;;0.10;62.81;102856.61;107433;1246;72590;-72
2022/03/14 01:00:21;;;;;;;20.30;11.00;;;;;;;0.08;63.52;102857.30;107487;1247;71668;-70
2022/03/14 01:02:51;;;;;;;18.80;10.60;;;;;;;0.08;63.83;102856.95;107471;1247;71558;-70
2022/03/14 01:05:20;;;;;;;18.80;10.80;;;;;;;0.06;65.45;102855.06;107574;1245;60519;-72
2022/03/14 01:07:49;;;;;;;18.20;10.30;;;;;;;0.09;64.71;102857.12;107497;1247;61280;-70
2022/03/14 01:10:19;;;;;;;18.50;10.60;;;;;;;0.14;64.36;102862.30;107486;1247;74513;-70
2022/03/14 01:12:48;;;;;;;17.40;9.60;;;;;;;0.15;64.00;102861.09;107164;1247;73475;-69
2022/03/14 01:15:18;;;;;;;16.20;9.80;;;;;;;0.15;63.71;102860.75;107538;1247;71557;-70
2022/03/14 01:17:47;;;;;;;18.30;10.20;;;;;;;0.13;63.96;102856.64;107464;1247;72502;-70
2022/03/14 01:20:19;;;;;;;17.10;9.90;;;;;;;0.12;64.64;102854.23;107448;1247;58882;-70
2022/03/14 01:22:48;;;;;;;18.00;10.30;;;;;;;0.11;65.06;102857.31;107484;1247;60067;-69
2022/03/14 01:25:17;;;;;;;21.00;10.30;;;;;;;0.06;65.64;102857.11;107578;1247;72763;-69
2022/03/14 01:27:46;;;;;;;19.00;10.80;;;;;;;0.04;65.83;102856.92;107584;1247;70321;-70
2022/03/14 01:30:15;;;;;;;15.20;9.20;;;;;;;0.07;65.61;102859.34;107543;1247;69704;-72
2022/03/14 01:32:45;;;;;;;17.70;9.70;;;;;;;0.09;65.17;102866.55;107556;1247;74070;-70
2022/03/14 01:35:17;;;;;;;16.20;8.90;;;;;;;0.08;64.30;102868.60;107614;1247;60605;-69
2022/03/14 01:37:50;;;;;;;19.10;10.40;;;;;;;0.07;64.20;102877.50;107687;1247;60834;-69
2022/03/14 01:40:19;;;;;;;15.50;9.10;;;;;;;0.03;64.04;102881.77;107555;1246;72544;-71
2022/03/14 01:42:49;;;;;;;18.30;9.70;;;;;;;-0.04;65.03;102877.44;107392;1247;72236;-72
2022/03/14 01:45:18;;;;;;;21.40;10.30;;;;;;;-0.06;64.23;102877.43;107638;1247;69517;-71
2022/03/14 01:47:48;;;;;;;17.90;9.60;;;;;;;-0.08;66.45;102878.60;107674;1245;73981;-70
2022/03/14 01:50:18;;;;;;;18.40;10.70;;;;;;;-0.06;65.80;102876.92;107695;1247;60161;-70
2022/03/14 01:52:47;;;;;;;15.70;9.50;;;;;;;-0.02;64.77;102879.67;107720;1246;61521;-72
2022/03/14 01:55:16;;;;;;;20.80;10.70;;;;;;;0.00;64.73;102884.14;107603;1247;73285;-70
2022/03/14 01:57:45;;;;;;;18.90;11.20;;;;;;;0.03;64.88;102883.64;107842;1247;69471;-70
2022/03/14 02:00:14;;;;;;;20.00;10.20;;;;;;;0.01;65.84;102883.98;107828;1246;67911;-70
2022/03/14 02:02:44;;;;;;;20.80;11.50;;;;;;;-0.03;66.27;102885.48;107551;1248;72409;-68
2022/03/14 02:05:15;;;;;;;19.00;11.30;;;;;;;-0.03;66.37;102889.77;107434;1247;59742;-70
2022/03/14 02:07:44;;;;;;;17.60;10.50;;;;;;;0.00;65.35;102896.66;108404;1246;60107;-68
2022/03/14 02:10:13;;;;;;;19.80;10.30;;;;;;;0.01;64.84;102901.80;107528;1247;74815;-67
2022/03/14 02:12:44;;;;;;;18.00;10.10;;;;;;;-0.03;64.82;102896.98;107453;1247;73080;-70
2022/03/14 02:15:13;;;;;;;15.70;9.80;;;;;;;-0.07;64.16;102899.70;107560;1247;70412;-70
2022/03/14 02:17:42;;;;;;;18.10;10.00;;;;;;;-0.10;64.28;102899.33;107520;1247;73715;-70
2022/03/14 02:20:11;;;;;;;14.80;9.50;;;;;;;-0.16;64.84;102899.80;107477;1248;61187;-70
2022/03/14 02:22:40;;;;;;;17.60;10.30;;;;;;;-0.17;66.57;102899.27;107549;1247;61929;-70
2022/03/14 02:25:10;;;;;;;20.20;10.20;;;;;;;-0.20;66.76;102897.02;107472;1246;74694;-70
2022/03/14 02:27:39;;;;;;;17.30;10.30;;;;;;;-0.18;66.95;102901.31;107434;1248;70816;-70
2022/03/14 02:30:09;;;;;;;17.30;10.00;;;;;;;-0.17;67.35;102903.91;107434;1247;69054;-69
2022/03/14 02:32:42;;;;;;;19.00;10.10;;;;;;;-0.15;67.03;102903.40;107505;1246;73895;-69
2022/03/14 02:35:12;;;;;;;14.50;7.30;;;;;;;-0.14;66.33;102907.70;107478;1247;59660;-70
2022/03/14 02:37:41;;;;;;;9.00;5.30;;;;;;;-0.04;66.02;102905.87;107451;1247;61201;-70
2022/03/14 02:40:11;;;;;;;13.70;8.30;;;;;;;-0.12;66.11;102907.52;107423;1249;72215;-71
2022/03/14 02:42:40;;;;;;;18.70;10.80;;;;;;;-0.26;66.37;102910.69;107493;1248;69926;-72
2022/03/14 02:45:10;;;;;;;18.70;10.60;;;;;;;-0.30;66.50;102917.83;107472;1248;68717;-71
2022/03/14 02:47:39;;;;;;;20.20;11.20;;;;;;;-0.27;67.01;102915.47;107502;1246;74954;-70
2022/03/14 02:50:08;;;;;;;17.50;10.90;;;;;;;-0.23;66.96;102916.52;107438;1247;61325;-69
2022/03/14 02:52:39;;;;;;;18.30;9.90;;;;;;;-0.16;66.60;102922.06;107529;1247;60232;-69
2022/03/14 02:55:08;;;;;;;17.00;10.20;;;;;;;-0.11;66.78;102921.77;107466;1246;74529;-70
2022/03/14 02:57:37;;;;;;;20.10;10.30;;;;;;;-0.11;66.47;102919.54;107545;1246;73965;-70
2022/03/14 03:00:07;;;;;;;18.80;10.50;;;;;;;-0.13;67.12;102920.20;107588;1247;70108;-70
2022/03/14 03:02:37;;;;;;;20.70;11.40;;;;;;;-0.13;66.71;102918.14;107539;1248;71161;-69
2022/03/14 03:05:07;;;;;;;20.10;11.20;;;;;;;-0.10;66.84;102922.63;107399;1249;61292;-70
2022/03/14 03:07:36;;;;;;;20.10;10.50;;;;;;;-0.06;66.51;102922.98;107533;1246;58922;-70
2022/03/14 03:10:07;;;;;;;17.30;10.70;;;;;;;-0.04;66.47;102923.35;107528;1247;70942;-71
2022/03/14 03:12:40;;;;;;;19.20;10.60;;;;;;;-0.03;66.36;102929.02;107465;1248;72569;-71
2022/03/14 03:15:11;;;;;;;17.60;11.10;;;;;;;-0.07;65.85;102931.02;107454;1247;69518;-70
2022/03/14 03:17:43;;;;;;;15.80;8.70;;;;;;;-0.13;66.01;102923.29;107531;1247;73496;-70
2022/03/14 03:20:14;;;;;;;19.70;11.00;;;;;;;-0.18;66.47;102917.08;107574;1247;59942;-71
2022/03/14 03:22:43;;;;;;;25.00;11.80;;;;;;;-0.24;67.27;102915.32;107636;1247;58982;-72
2022/03/14 03:25:13;;;;;;;22.10;11.10;;;;;;;-0.24;67.74;102923.38;107438;1248;72503;-73
2022/03/14 03:27:41;;;;;;;22.00;10.40;;;;;;;-0.21;67.00;102924.77;107462;1247;72256;-70
2022/03/14 03:30:11;;;;;;;21.30;11.20;;;;;;;-0.17;65.90;102930.30;107498;1246;72041;-69
2022/03/14 03:32:41;;;;;;;20.80;11.00;;;;;;;-0.18;65.59;102931.98;107370;1247;73691;-70
2022/03/14 03:35:10;;;;;;;16.20;8.40;;;;;;;-0.18;65.62;102931.80;107533;1248;62712;-71
2022/03/14 03:37:40;;;;;;;19.40;8.80;;;;;;;-0.20;66.13;102931.80;107607;1246;59583;-71
2022/03/14 03:40:11;;;;;;;20.40;10.70;;;;;;;-0.13;66.17;102925.69;107561;1246;74449;-70
2022/03/14 03:42:39;;;;;;;19.40;10.80;;;;;;;-0.21;66.30;102928.54;107578;1247;73725;-70
2022/03/14 03:45:09;;;;;;;19.80;10.80;;;;;;;-0.22;65.85;102929.73;107578;1247;69023;-70
2022/03/14 03:47:38;;;;;;;21.90;11.90;;;;;;;-0.24;66.45;102930.39;107542;1247;74906;-70
2022/03/14 03:50:08;;;;;;;20.40;11.40;;;;;;;-0.28;67.56;102931.21;107459;1247;59180;-71
2022/03/14 03:52:37;;;;;;;22.00;11.10;;;;;;;-0.29;67.15;102932.59;107392;1247;60467;-71
2022/03/14 03:55:06;;;;;;;21.50;11.60;;;;;;;-0.27;67.20;102934.14;107434;1247;75880;-72
2022/03/14 03:57:40;;;;;;;18.70;11.00;;;;;;;-0.26;67.35;102940.14;107351;1247;72900;-72
2022/03/14 04:00:12;;;;;;;18.70;11.00;;;;;;;-0.25;67.52;102939.63;107234;1247;71379;-72
2022/03/14 04:02:42;;;;;;;21.70;11.20;;;;;;;-0.22;67.37;102943.09;107508;1244;71878;-68
2022/03/14 04:05:14;;;;;;;23.00;12.10;;;;;;;-0.23;67.57;102945.98;107357;1246;60375;-71
2022/03/14 04:07:44;;;;;;;10.80;7.20;;;;;;;-0.19;67.22;102951.67;107293;1248;59039;-69
2022/03/14 04:10:14;;;;;;;10.10;6.90;;;;;;;-0.12;66.96;102957.20;107423;1247;72050;-70
2022/03/14 04:12:44;;;;;;;33.50;14.60;;;;;;;-0.30;67.18;102957.59;107383;1247;72226;-72
2022/03/14 04:15:14;;;;;;;36.10;16.50;;;;;;;-0.48;67.56;102960.48;107362;1247;68753;-71
2022/03/14 04:17:43;;;;;;;25.40;13.20;;;;;;;-0.50;67.56;102964.24;107325;1247;73108;-71
2022/03/14 04:20:12;;;;;;;22.80;12.00;;;;;;;-0.51;67.40;102970.23;107323;1247;60880;-70
2022/03/14 04:22:41;;;;;;;24.40;12.60;;;;;;;-0.54;67.05;102970.02;107348;1246;60847;-71
2022/03/14 04:25:11;;;;;;;22.20;12.90;;;;;;;-0.52;67.82;102966.27;107489;1247;75225;-70
2022/03/14 04:27:40;;;;;;;20.10;11.30;;;;;;;-0.52;69.56;102966.79;107391;1247;72842;-70
2022/03/14 04:30:10;;;;;;;23.50;11.40;;;;;;;-0.53;68.73;102972.24;107358;1246;69891;-70
2022/03/14 04:32:39;;;;;;;21.80;12.00;;;;;;;-0.49;67.79;102972.81;107394;1246;72927;-70
2022/03/14 04:35:08;;;;;;;20.80;11.60;;;;;;;-0.45;67.78;102978.67;107316;1246;60180;-71
2022/03/14 04:37:38;;;;;;;18.30;10.50;;;;;;;-0.43;68.33;102982.45;107849;1247;61479;-73
2022/03/14 04:40:08;;;;;;;26.60;12.10;;;;;;;-0.34;68.08;102980.83;107261;1247;74446;-71
2022/03/14 04:42:37;;;;;;;22.80;12.10;;;;;;;-0.29;67.56;102977.27;107218;1247;71231;-72
2022/03/14 04:45:07;;;;;;;26.40;13.30;;;;;;;-0.32;67.62;102973.98;107337;1247;70220;-73
2022/03/14 04:47:36;;;;;;;26.20;13.80;;;;;;;-0.34;68.07;102972.09;107372;1246;71516;-72
2022/03/14 04:50:06;;;;;;;26.00;13.30;;;;;;;-0.36;68.82;102974.98;107339;1247;60617;-71
2022/03/14 04:52:36;;;;;;;26.00;12.70;;;;;;;-0.31;68.10;102974.85;107407;1246;60407;-73
2022/03/14 04:55:06;;;;;;;23.30;12.00;;;;;;;-0.25;67.85;102975.76;107295;1248;73168;-71
2022/03/14 04:57:35;;;;;;;24.00;13.10;;;;;;;-0.18;67.54;102980.61;107345;1247;70383;-70
2022/03/14 05:00:08;;;;;;;24.10;11.20;;;;;;;-0.19;67.45;102981.13;107320;1247;69079;-71
2022/03/14 05:02:36;;;;;;;22.60;11.70;;;;;;;-0.19;67.14;102984.89;107412;1247;74427;-71
2022/03/14 05:05:11;;;;;;;26.30;13.40;;;;;;;-0.18;67.17;102983.71;107508;1247;60597;-74
2022/03/14 05:07:42;;;;;;;24.90;11.90;;;;;;;-0.23;68.01;102986.75;107396;1247;60603;-71
2022/03/14 05:10:11;;;;;;;21.70;12.00;;;;;;;-0.17;67.28;102991.26;107656;1246;75035;-71
2022/03/14 05:12:41;;;;;;;25.70;12.00;;;;;;;-0.10;67.23;102992.34;107506;1247;72086;-74
2022/03/14 05:15:10;;;;;;;18.20;7.80;;;;;;;-0.04;67.03;102988.61;107385;1247;70597;-73
2022/03/14 05:17:39;;;;;;;20.40;11.60;;;;;;;0.10;66.47;102993.01;107521;1247;74942;-73
2022/03/14 05:20:09;;;;;;;18.80;10.70;;;;;;;0.00;66.59;102992.94;107495;1247;59588;-75
2022/03/14 05:22:49;;;;;;;27.00;13.60;;;;;;;-0.06;66.54;102995.45;107540;1247;58869;-74
2022/03/14 05:25:23;;;;;;;24.80;13.20;;;;;;;-0.08;67.05;103000.75;107645;1246;74526;-74
2022/03/14 05:27:54;;;;;;;25.60;12.30;;;;;;;-0.05;66.62;103001.80;107657;1247;73685;-73
2022/03/14 05:30:24;;;;;;;21.60;11.50;;;;;;;-0.04;66.97;103005.41;107910;1246;68447;-74
2022/03/14 05:32:54;;;;;;;18.10;9.50;;;;;;;0.04;66.55;103011.97;107822;1247;74196;-74
2022/03/14 05:35:23;;;;;;;25.20;11.80;;;;;;;0.14;65.98;103011.73;107920;1246;63788;-73
2022/03/14 05:37:52;;;;;;;22.10;10.30;;;;;;;0.15;66.08;103013.27;107943;1246;59919;-73
2022/03/14 05:40:21;;;;;;;25.30;12.00;;;;;;;0.17;66.17;103009.86;107947;1245;73229;-74
2022/03/14 05:42:50;;;;;;;26.70;13.50;;;;;;;0.18;66.31;103011.58;107913;1247;71531;-75
2022/03/14 05:45:21;;;;;;;24.30;13.00;;;;;;;0.23;66.16;103017.27;107764;1246;72042;-78
2022/03/14 05:47:51;;;;;;;30.80;14.90;;;;;;;0.14;66.57;102993.05;107606;1246;72689;-76
2022/03/14 05:50:20;;;;;;;25.10;13.90;;;;;;;0.40;68.50;103021.50;107581;1247;59681;-73
2022/03/14 05:52:50;;;;;;;29.10;13.60;;;;;;;0.57;68.40;103028.13;107738;1245;58949;-73
2022/03/14 05:55:19;;;;;;;24.70;12.70;;;;;;;0.71;66.94;103029.06;107678;1246;72963;-74
2022/03/14 05:57:49;;;;;;;33.30;16.50;;;;;;;0.79;66.84;103032.71;107734;1246;70747;-72
2022/03/14 06:00:24;;;;;;;30.20;15.10;;;;;;;0.85;66.11;103035.65;107648;1247;69838;-72
2022/03/14 06:02:53;;;;;;;31.50;14.40;;;;;;;0.85;65.10;103035.66;107643;1247;72683;-73
2022/03/14 06:05:23;;;;;;;27.70;13.20;;;;;;;0.85;64.66;103044.41;107571;1247;59728;-73
2022/03/14 06:07:52;;;;;;;29.40;15.50;;;;;;;0.83;64.55;103044.73;107376;1247;61110;-72
2022/03/14 06:10:22;;;;;;;27.30;15.40;;;;;;;0.80;64.64;103050.91;107650;1247;71856;-74
2022/03/14 06:12:51;;;;;;;25.50;13.30;;;;;;;0.76;64.59;103048.66;107557;1245;71652;-73
2022/03/14 06:15:20;;;;;;;19.90;11.30;;;;;;;0.75;64.46;103056.70;107726;1245;70465;-73
2022/03/14 06:17:49;;;;;;;24.50;12.60;;;;;;;0.77;64.71;103058.77;107226;1247;659552;-73
2022/03/14 06:20:18;;;;;;;27.20;13.90;;;;;;;0.84;64.48;103062.60;107707;1247;59600;-73
2022/03/14 06:22:47;;;;;;;24.20;13.10;;;;;;;0.88;64.63;103062.79;107659;1246;61353;-72
2022/03/14 06:25:18;;;;;;;21.70;13.60;;;;;;;0.92;64.40;103060.05;107682;1246;73246;-73
2022/03/14 06:27:47;;;;;;;22.50;12.30;;;;;;;0.97;63.78;103058.71;107675;1247;71470;-74
2022/03/14 06:30:17;;;;;;;23.80;12.20;;;;;;;0.95;63.62;103059.90;107534;1247;68717;-74
2022/03/14 06:32:48;;;;;;;29.50;13.60;;;;;;;1.12;63.83;103058.10;107510;1247;72555;-69
2022/03/14 06:35:18;;;;;;;21.50;10.40;;;;;;;1.12;63.72;103056.89;107612;1247;59618;-70
2022/03/14 06:37:47;;;;;;;18.70;10.10;;;;;;;1.25;63.19;103064.16;107256;1245;58789;-69
2022/03/14 06:40:17;;;;;;;22.40;11.80;;;;;;;1.22;62.85;103065.35;108275;1247;73679;-69
2022/03/14 06:42:49;;;;;;;24.70;12.80;;;;;;;1.15;63.03;103067.21;107578;1247;70728;-66
2022/03/14 06:45:23;;;;;;;29.20;13.80;;;;;;;1.13;63.24;103069.26;107505;1247;67958;-70
2022/03/14 06:47:54;;;;;;;24.60;13.30;;;;;;;0.97;63.43;103071.06;107482;1247;71240;-70
2022/03/14 06:50:24;;;;;;;27.10;13.90;;;;;;;1.18;63.34;103074.77;107409;1247;60073;-69
2022/03/14 06:52:59;;;;;;;25.80;13.40;;;;;;;1.28;62.64;103076.36;107617;1247;60311;-69
2022/03/14 06:55:29;;;;;;;24.00;13.40;;;;;;;1.46;62.41;103077.45;107496;1247;75380;-70
2022/03/14 06:57:58;;;;;;;26.00;14.30;;;;;;;1.51;61.70;103082.63;107432;1246;73774;-71
2022/03/14 07:00:27;;;;;;;27.40;15.40;;;;;;;1.47;61.47;103083.13;107288;1247;69039;-71
2022/03/14 07:02:57;;;;;;;24.00;13.80;;;;;;;1.46;61.85;103081.91;107182;1247;72549;-72
2022/03/14 07:05:27;;;;;;;26.40;15.20;;;;;;;1.62;60.82;103088.33;107272;1247;59841;-69
2022/03/14 07:07:56;;;;;;;28.60;15.00;;;;;;;1.65;60.65;103087.82;107443;1247;62183;-70
2022/03/14 07:10:25;;;;;;;28.90;14.80;;;;;;;1.72;60.73;103090.23;107521;1247;75045;-70
2022/03/14 07:12:55;;;;;;;24.30;14.20;;;;;;;1.71;60.52;103089.55;107496;1246;72797;-69
2022/03/14 07:15:25;;;;;;;27.30;13.70;;;;;;;1.84;60.77;103094.04;107552;1246;70857;-70
2022/03/14 07:17:55;;;;;;;23.50;13.70;;;;;;;1.79;59.74;103093.86;107394;1246;72669;-70
2022/03/14 07:20:25;;;;;;;25.30;13.50;;;;;;;1.90;59.70;103092.85;107376;1246;59559;-70
2022/03/14 07:23:00;;;;;;;23.10;13.60;;;;;;;2.02;60.00;103091.33;107485;1247;59844;-68
2022/03/14 07:25:34;;;;;;;26.60;14.20;;;;;;;1.98;59.40;103087.88;107478;1247;72956;-70
2022/03/14 07:28:09;;;;;;;28.80;14.70;;;;;;;2.00;59.49;103085.64;107357;1247;70890;-69
2022/03/14 07:30:39;;;;;;;22.60;13.60;;;;;;;2.06;58.85;103091.84;107535;1247;68742;-69
2022/03/14 07:33:08;;;;;;;25.50;14.10;;;;;;;2.13;59.44;103088.23;107534;1247;71990;-69
2022/03/14 07:35:38;;;;;;;23.10;13.40;;;;;;;2.29;59.39;103088.23;107268;1247;59618;-69
2022/03/14 07:38:09;;;;;;;23.60;13.40;;;;;;;2.38;59.05;103088.76;107523;1247;61799;-70
2022/03/14 07:40:38;;;;;;;24.00;14.70;;;;;;;2.41;57.87;103086.69;107515;1246;74957;-71
2022/03/14 07:43:07;;;;;;;29.40;15.40;;;;;;;2.29;57.35;103087.39;107504;1246;73067;-71
2022/03/14 07:45:36;;;;;;;26.10;13.60;;;;;;;2.34;57.86;103089.61;107374;1247;68798;-71
2022/03/14 07:48:08;;;;;;;34.50;15.10;;;;;;;2.50;58.38;103095.98;107342;1246;72002;-70
2022/03/14 07:50:37;;;;;;;35.00;17.20;;;;;;;2.36;57.56;103097.36;107451;1247;61561;-70
2022/03/14 07:53:07;;;;;;;33.40;16.80;;;;;;;2.18;57.67;103098.21;107216;1247;62344;-71
2022/03/14 07:55:36;;;;;;;27.40;14.60;;;;;;;2.28;57.53;103099.41;107503;1246;73357;-69
2022/03/14 07:58:06;;;;;;;25.70;15.10;;;;;;;2.55;57.99;103098.89;107475;1247;72597;-71
2022/03/14 08:00:35;;;;;;;29.10;15.50;;;;;;;2.57;56.19;103100.28;107456;1247;70936;-69
2022/03/14 08:03:04;;;;;;;26.20;13.40;;;;;;;2.23;56.24;103085.65;107475;1246;71704;-69
2022/03/14 08:05:34;;;;;;;32.50;15.50;;;;;;;2.63;56.87;103100.43;107407;1247;60600;-69
2022/03/14 08:08:08;;;;;;;30.20;15.40;;;;;;;2.58;55.62;103100.95;107495;1245;61529;-70
2022/03/14 08:10:41;;;;;;;27.30;15.50;;;;;;;2.72;54.20;103103.87;107432;1247;72672;-69
2022/03/14 08:13:10;;;;;;;27.30;16.70;;;;;;;3.03;54.22;103101.55;107556;1245;70205;-70
2022/03/14 08:15:41;;;;;;;29.50;16.30;;;;;;;3.21;53.56;103104.42;107306;1247;68691;-69
2022/03/14 08:18:10;;;;;;;24.70;15.10;;;;;;;3.20;52.78;103104.60;107408;1246;73383;-69
2022/03/14 08:20:39;;;;;;;24.80;13.60;;;;;;;3.05;51.78;103101.90;107412;1246;59583;-70
2022/03/14 08:23:09;;;;;;;14.00;8.40;;;;;;;3.43;51.13;103104.52;107532;1247;59008;-71
2022/03/14 08:25:38;;;;;;;13.30;8.40;;;;;;;3.68;50.04;103100.42;107340;1248;71813;-69
2022/03/14 08:28:07;;;;;;;13.00;7.40;;;;;;;3.59;48.43;103101.15;107454;1246;70117;-72
2022/03/14 08:30:38;;;;;;;8.70;5.50;;;;;;;3.77;49.21;103094.86;107317;1247;68984;-71
2022/03/14 08:33:07;;;;;;;11.80;7.20;;;;;;;3.76;45.39;103100.55;107581;1245;71972;-69
2022/03/14 08:35:36;;;;;;;12.10;7.90;;;;;;;3.61;44.58;103100.13;107497;1246;59598;-69
2022/03/14 08:38:06;;;;;;;12.90;7.80;;;;;;;3.60;46.05;103096.50;107443;1246;59970;-68
2022/03/14 08:40:35;;;;;;;13.30;7.90;;;;;;;3.74;45.33;103092.45;107495;1246;75454;-69
2022/03/14 08:43:04;;;;;;;11.30;6.90;;;;;;;3.73;44.29;103089.19;107513;1245;73917;-70
2022/03/14 08:45:33;;;;;;;10.80;6.60;;;;;;;3.95;44.31;103091.13;107543;1246;69599;-70
2022/03/14 08:48:05;;;;;;;12.60;7.50;;;;;;;4.05;44.96;103088.30;107416;1247;73692;-69
2022/03/14 08:50:37;;;;;;;10.60;6.50;;;;;;;4.11;44.74;103092.73;107307;1247;59686;-69
2022/03/14 08:53:08;;;;;;;9.10;5.90;;;;;;;4.07;43.91;103088.27;107424;1247;59816;-69
2022/03/14 08:56:14;;;;;;;8.10;5.40;;;;;;;4.23;44.73;103083.33;107670;1246;73720;-70
2022/03/14 08:59:19;;;;;;;12.10;6.20;;;;;;;4.24;43.49;103082.98;107659;1246;71797;-70
2022/03/14 09:01:48;;;;;;;13.00;7.30;;;;;;;4.46;43.32;103081.75;107605;1246;66935;-68
2022/03/14 09:04:18;;;;;;;12.50;6.30;;;;;;;4.61;42.05;103080.23;107250;1247;74313;-70
2022/03/14 09:06:47;;;;;;;10.20;6.60;;;;;;;4.86;41.77;103083.60;107512;1246;59641;-70
2022/03/14 09:09:16;;;;;;;12.50;7.30;;;;;;;4.76;41.51;103083.70;107647;1246;59486;-70
2022/03/14 09:11:45;;;;;;;11.10;6.70;;;;;;;5.01;42.20;103081.19;107616;1246;73184;-69
2022/03/14 09:14:14;;;;;;;11.30;6.60;;;;;;;4.89;41.38;103079.08;107620;1246;70666;-69
2022/03/14 09:16:44;;;;;;;10.90;7.00;;;;;;;5.16;41.23;103077.89;107471;1246;70038;-70
2022/03/14 09:19:14;;;;;;;10.30;6.40;;;;;;;4.85;40.64;103079.10;107700;1246;74281;-70
2022/03/14 09:21:44;;;;;;;13.00;7.60;;;;;;;4.93;41.55;103079.02;107384;1247;60128;-69
2022/03/14 09:24:14;;;;;;;9.80;6.90;;;;;;;4.94;40.98;103082.13;107649;1247;61043;-70
2022/03/14 09:26:42;;;;;;;9.40;6.30;;;;;;;5.14;40.68;103079.64;107231;1247;75395;-69
2022/03/14 09:29:12;;;;;;;12.40;6.90;;;;;;;4.92;40.19;103078.48;107506;1246;73351;-71
2022/03/14 09:31:41;;;;;;;13.70;7.90;;;;;;;4.60;41.49;103070.05;107374;1246;69488;-69
2022/03/14 09:34:10;;;;;;;8.90;5.90;;;;;;;5.24;39.98;103079.18;107547;1246;72802;-69
2022/03/14 09:36:39;;;;;;;10.30;5.30;;;;;;;5.27;39.19;103075.67;107531;1246;59142;-70
2022/03/14 09:39:13;;;;;;;10.80;6.90;;;;;;;5.24;38.80;103077.63;107542;1246;59808;-69
2022/03/14 09:41:43;;;;;;;10.70;6.70;;;;;;;4.94;39.83;103075.91;107206;1246;73486;-70
2022/03/14 09:44:17;;;;;;;11.80;7.90;;;;;;;4.54;40.53;103073.90;107473;1246;72311;-70
2022/03/14 09:46:48;;;;;;;12.70;6.50;;;;;;;4.76;40.43;103071.79;107467;1245;70408;-70
2022/03/14 09:49:19;;;;;;;9.00;4.90;;;;;;;5.13;40.20;103068.25;107419;1247;74893;-71
2022/03/14 09:51:50;;;;;;;11.30;6.50;;;;;;;5.52;38.02;103060.67;107286;1247;60401;-71
2022/03/14 09:54:21;;;;;;;12.00;5.80;;;;;;;5.18;38.88;103065.09;107328;1247;62499;-71
2022/03/14 09:57:01;;;;;;;13.90;7.70;;;;;;;4.82;39.82;103063.95;107344;1247;76260;-71
2022/03/14 09:59:30;;;;;;;12.60;7.50;;;;;;;4.87;40.29;103065.98;107556;1247;72038;-70
2022/03/14 10:02:01;;;;;;;11.00;6.80;;;;;;;4.82;40.28;103062.92;107571;1246;71959;-70
2022/03/14 10:04:30;;;;;;;12.00;6.60;;;;;;;5.33;39.73;103060.23;107373;1246;74512;-71
2022/03/14 10:06:59;;;;;;;12.10;7.40;;;;;;;5.51;38.84;103059.48;107179;1246;60183;-70
2022/03/14 10:09:28;;;;;;;11.20;7.10;;;;;;;5.28;38.89;103059.09;107553;1245;60873;-71
2022/03/14 10:11:57;;;;;;;11.80;7.60;;;;;;;4.97;38.93;103061.89;107545;1246;74120;-70
2022/03/14 10:14:27;;;;;;;12.70;7.70;;;;;;;4.74;39.44;103064.38;107534;1246;72512;-71
2022/03/14 10:16:56;;;;;;;14.30;7.30;;;;;;;4.72;39.89;103064.57;107489;1247;68669;-69
2022/03/14 10:19:34;;;;;;;13.10;6.90;;;;;;;4.36;40.09;103061.64;107580;1246;71703;-71
2022/03/14 10:22:22;;;;;;;12.20;7.70;;;;;;;4.60;40.19;103062.98;107433;1246;59658;-70
2022/03/14 10:25:09;;;;;;;12.60;8.20;;;;;;;4.88;40.57;103058.53;107500;1245;58945;-69
2022/03/14 10:27:51;;;;;;;11.40;7.00;;;;;;;4.78;40.04;103061.92;107872;1246;72295;-70
2022/03/14 10:30:35;;;;;;;12.80;7.50;;;;;;;5.18;39.85;103054.23;107881;1245;71482;-71
2022/03/14 10:33:11;;;;;;;11.50;7.10;;;;;;;5.33;39.39;103052.80;107772;1246;71098;-71
2022/03/14 10:35:44;;;;;;;12.90;8.80;;;;;;;5.09;39.20;103047.58;107660;1245;72665;-69
2022/03/14 10:38:14;;;;;;;12.90;6.80;;;;;;;5.13;39.34;103050.64;107641;1245;59563;-71
2022/03/14 10:40:45;;;;;;;10.90;6.50;;;;;;;5.14;39.89;103048.55;107535;1246;60879;-71
2022/03/14 10:43:35;;;;;;;12.50;7.20;;;;;;;5.23;38.73;103046.02;107394;1246;74820;-70
2022/03/14 10:46:07;;;;;;;11.00;6.60;;;;;;;5.02;39.52;103045.77;107314;1247;70664;-71
2022/03/14 10:48:43;;;;;;;12.20;7.60;;;;;;;5.14;39.19;103040.62;107512;1247;68862;-71
2022/03/14 10:51:14;;;;;;;13.60;8.00;;;;;;;5.39;38.60;103032.51;107613;1246;74755;-69
2022/03/14 10:53:48;;;;;;;10.40;6.10;;;;;;;6.11;40.08;103033.67;107426;1247;61759;-69
2022/03/14 10:56:26;;;;;;;12.50;7.70;;;;;;;6.80;37.86;103034.52;107390;1246;61105;-70
2022/03/14 10:59:06;;;;;;;14.50;8.50;;;;;;;6.79;37.21;103028.46;107455;1247;72225;-70
2022/03/14 11:01:59;;;;;;;11.50;6.10;;;;;;;7.19;37.15;103024.86;107644;1246;71502;-70
2022/03/14 11:04:58;;;;;;;15.10;10.90;;;;;;;7.61;35.34;103019.60;107607;1247;70246;-70
2022/03/14 11:07:35;;;;;;;12.70;8.30;;;;;;;7.34;35.75;103015.52;107585;1246;71345;-71
2022/03/14 11:10:06;;;;;;;13.10;8.70;;;;;;;7.79;36.75;103008.09;107607;1245;59557;-72
2022/03/14 11:12:35;;;;;;;15.50;9.50;;;;;;;7.77;36.15;103006.39;107579;1246;58848;-72
2022/03/14 11:15:09;;;;;;;13.20;8.00;;;;;;;8.35;34.93;103009.27;107573;1245;73795;-72
2022/03/14 11:17:38;;;;;;;12.20;7.40;;;;;;;8.66;34.00;103006.02;107656;1245;72084;-71
2022/03/14 11:20:27;;;;;;;13.90;8.50;;;;;;;8.45;33.27;103002.92;107565;1246;72047;-71
2022/03/14 11:22:57;;;;;;;13.00;8.50;;;;;;;8.42;33.96;102998.66;107471;1246;73575;-70
2022/03/14 11:25:29;;;;;;;16.80;9.50;;;;;;;8.81;33.43;102998.30;107696;1246;59981;-71